MMMX/MEX METAR and TAF weather

Enter ICAO airport designator
Station Type Date Time Source
MMMX METAR 2019/06/17 06:40 UTC NOAA

MMMX 170640Z 14008KT 7SM FEW020 SCT200 19/13 A3028 NOSIG RMK 8/502 HZY ISOL AC


Station Type Date Time Source
MMMX Decoded METAR 2019/06/17 06:40 UTC NOAA

Mexico City / Licenci, Mexico (MMMX) 19-26N 099-06W
Jun 17, 2019 - 02:40 AM EDT / 2019.06.17 0640 UTC
Wind: from the SE (140 degrees) at 9 MPH (8 KT):0
Visibility: 7 mile(s):0
Sky conditions: partly cloudy
Temperature: 66 F (19 C)
Dew Point: 55 F (13 C)
Relative Humidity: 68%
Pressure (altimeter): 30.28 in. Hg (1025 hPa)
ob: MMMX 170640Z 14008KT 7SM FEW020 SCT200 19/13 A3028 NOSIG RMK 8/502 HZY ISOL AC
cycle: 6

Station Type Date Time Source
MMMX TAF 2019/06/17 06:20 UTC NOAA

TAF MMMX 170413Z 1706/1812 10009KT P6SM SCT020 SCT080 BKN200 TX27/1721Z TN16/1712Z
FM171100 29004KT P6SM SCT080 BKN200
FM171800 13010KT P6SM SCT020 BKN080 BKN220 PROB40 1723/2803 5SM -TSRA BKN020CB
FM180700 02005KT P6SM SCT025 SCT090 BKN220

Example: see airport list